Time;durP1;ratioP1;P1;durP2;ratioP2;P2;SDS_P1;SDS_P2;PMS_P1;PMS_P2;Temp;Humidity;BMP_temperature;BMP_pressure;BME280_temperature;BME280_humidity;BME280_pressure;Samples;Min_cycle;Max_cycle;Signal;HPM_P1;HPM_P2
2022/07/07 00:00:58;;;;;;;5.20;1.87;;;;;;;;;;4959016;28;20199;-88
2022/07/07 00:04:03;;;;;;;4.03;1.70;;;;;;;;;;4942084;28;20226;-89
2022/07/07 00:07:07;;;;;;;3.07;1.20;;;;;;;;;;4935744;28;20195;-88
2022/07/07 00:10:12;;;;;;;1.73;1.40;;;;;;;;;;4934930;29;20651;-88
2022/07/07 00:13:16;;;;;;;3.93;1.60;;;;;;;;;;4947028;28;20223;-88
2022/07/07 00:16:20;;;;;;;3.40;1.60;;;;;;;;;;4942930;28;20218;-88
2022/07/07 00:19:25;;;;;;;3.47;1.70;;;;;;;;;;4953968;28;20203;-88
2022/07/07 00:22:29;;;;;;;1.87;1.67;;;;;;;;;;4943250;28;20662;-88
2022/07/07 00:25:39;;;;;;;2.53;1.50;;;;;;;;;;4964510;28;20198;-88
2022/07/07 00:28:44;;;;;;;4.73;1.90;;;;;;;;;;4931759;28;20206;-88
2022/07/07 00:31:48;;;;;;;3.40;1.73;;;;;;;;;;4953782;28;20207;-88
2022/07/07 00:34:52;;;;;;;2.70;1.70;;;;;;;;;;4953639;28;20191;-88
2022/07/07 00:37:56;;;;;;;4.70;1.40;;;;;;;;;;4953257;28;20689;-88
2022/07/07 00:41:01;;;;;;;2.17;1.50;;;;;;;;;;4953740;28;20191;-88
2022/07/07 00:44:10;;;;;;;7.43;1.70;;;;;;;;;;4953692;28;20227;-88
2022/07/07 00:47:15;;;;;;;7.40;1.73;;;;;;;;;;4961111;23;20234;-81
2022/07/07 00:50:20;;;;;;;1.50;1.40;;;;;;;;;;4958558;28;20199;-81
2022/07/07 00:53:24;;;;;;;3.13;1.40;;;;;;;;;;4959403;28;20190;-81
2022/07/07 00:56:28;;;;;;;1.93;1.50;;;;;;;;;;4957923;28;20214;-81
2022/07/07 00:59:33;;;;;;;3.70;1.70;;;;;;;;;;4947452;28;20187;-81
2022/07/07 01:02:37;;;;;;;2.47;1.60;;;;;;;;;;4938838;29;20226;-81
2022/07/07 01:05:45;;;;;;;3.40;1.43;;;;;;;;;;4949878;29;20183;-81
2022/07/07 01:08:51;;;;;;;3.40;1.67;;;;;;;;;;4950087;28;20203;-81
2022/07/07 01:11:57;;;;;;;2.80;1.67;;;;;;;;;;4940407;29;20227;-81
2022/07/07 01:15:04;;;;;;;2.63;1.60;;;;;;;;;;4939060;29;20204;-81
2022/07/07 01:18:08;;;;;;;3.50;2.00;;;;;;;;;;4938340;29;20184;-81
2022/07/07 01:21:15;;;;;;;3.00;1.70;;;;;;;;;;4948882;28;20223;-81
2022/07/07 01:24:22;;;;;;;4.37;1.73;;;;;;;;;;4968263;28;20183;-81
2022/07/07 01:27:26;;;;;;;6.40;1.90;;;;;;;;;;4956943;28;20183;-81
2022/07/07 01:30:30;;;;;;;4.00;1.93;;;;;;;;;;4946245;28;20646;-80
2022/07/07 01:33:34;;;;;;;3.07;1.90;;;;;;;;;;4964625;28;20665;-80
2022/07/07 01:36:38;;;;;;;1.80;1.60;;;;;;;;;;4945978;28;20685;-81
2022/07/07 01:39:42;;;;;;;3.37;1.90;;;;;;;;;;4938779;29;20635;-80
2022/07/07 01:42:47;;;;;;;5.33;1.80;;;;;;;;;;4948811;29;20211;-81
2022/07/07 01:45:51;;;;;;;4.67;1.90;;;;;;;;;;4975472;28;20692;-81
2022/07/07 01:48:55;;;;;;;3.70;1.70;;;;;;;;;;4946198;28;20203;-80
2022/07/07 01:52:00;;;;;;;4.60;1.87;;;;;;;;;;4945768;28;20222;-80
2022/07/07 01:55:05;;;;;;;4.30;1.90;;;;;;;;;;4945965;28;20543;-80
2022/07/07 01:58:09;;;;;;;6.57;1.70;;;;;;;;;;4957912;28;20180;-81
2022/07/07 02:01:13;;;;;;;3.17;2.07;;;;;;;;;;4965409;28;20223;-80
2022/07/07 02:04:17;;;;;;;4.13;1.70;;;;;;;;;;4947758;29;20199;-80
2022/07/07 02:07:21;;;;;;;2.77;1.90;;;;;;;;;;4925262;29;20516;-81
2022/07/07 02:13:50;;;;;;;1.97;1.67;;;;;;;;;;4965890;28;20203;-80
2022/07/07 02:16:55;;;;;;;3.87;1.93;;;;;;;;;;4978473;28;20211;-81
2022/07/07 02:19:59;;;;;;;3.97;2.07;;;;;;;;;;4966379;28;20183;-82
2022/07/07 02:23:03;;;;;;;3.10;1.83;;;;;;;;;;4943193;28;20199;-80
2022/07/07 02:26:07;;;;;;;5.13;1.90;;;;;;;;;;4965965;28;20183;-80
2022/07/07 02:29:11;;;;;;;3.67;2.10;;;;;;;;;;4966309;28;20187;-81
2022/07/07 02:32:16;;;;;;;2.43;1.90;;;;;;;;;;4925580;29;20226;-80
2022/07/07 02:35:20;;;;;;;3.43;2.13;;;;;;;;;;4958621;28;20190;-81
2022/07/07 02:38:25;;;;;;;4.53;2.00;;;;;;;;;;4952770;29;20199;-81
2022/07/07 02:41:29;;;;;;;6.03;2.03;;;;;;;;;;4937310;29;20216;-81
2022/07/07 02:44:33;;;;;;;3.80;2.00;;;;;;;;;;4949585;28;20191;-81
2022/07/07 02:47:37;;;;;;;6.13;2.20;;;;;;;;;;4947860;29;20211;-81
2022/07/07 02:50:42;;;;;;;2.27;1.97;;;;;;;;;;4925997;29;20223;-80
2022/07/07 02:53:46;;;;;;;5.80;2.20;;;;;;;;;;4948444;28;20199;-80
2022/07/07 02:56:50;;;;;;;3.10;2.20;;;;;;;;;;4925919;29;20214;-80
2022/07/07 02:59:55;;;;;;;4.13;2.13;;;;;;;;;;4937513;29;20207;-80
2022/07/07 03:03:01;;;;;;;5.43;2.20;;;;;;;;;;4947662;29;20195;-81
2022/07/07 03:06:05;;;;;;;5.43;2.20;;;;;;;;;;4953183;28;20670;-75
2022/07/07 03:09:09;;;;;;;2.20;2.00;;;;;;;;;;4951531;28;20187;-76
2022/07/07 03:12:13;;;;;;;5.20;2.00;;;;;;;;;;4962131;28;20223;-76
2022/07/07 03:15:18;;;;;;;6.57;2.50;;;;;;;;;;4970460;28;20536;-75
2022/07/07 03:18:22;;;;;;;2.80;2.27;;;;;;;;;;4957128;28;20179;-76
2022/07/07 03:21:26;;;;;;;4.37;2.30;;;;;;;;;;4962867;28;20230;-75
2022/07/07 03:24:31;;;;;;;4.20;2.53;;;;;;;;;;4977637;28;20654;-76
2022/07/07 03:27:36;;;;;;;4.30;2.10;;;;;;;;;;4958533;29;20184;-76
2022/07/07 03:30:40;;;;;;;3.47;2.10;;;;;;;;;;4957634;29;20710;-75
2022/07/07 03:33:44;;;;;;;4.00;2.30;;;;;;;;;;4963678;28;20203;-76
2022/07/07 03:36:48;;;;;;;4.43;2.10;;;;;;;;;;4962193;28;20219;-76
2022/07/07 03:39:53;;;;;;;6.77;2.27;;;;;;;;;;4946487;29;20199;-75
2022/07/07 03:42:57;;;;;;;2.17;1.90;;;;;;;;;;4958564;29;20207;-75
2022/07/07 03:46:01;;;;;;;6.50;2.10;;;;;;;;;;4966411;28;20206;-75
2022/07/07 03:49:05;;;;;;;2.50;2.13;;;;;;;;;;4965352;28;20179;-75
2022/07/07 03:52:10;;;;;;;3.80;2.00;;;;;;;;;;4976743;28;20227;-75
2022/07/07 03:55:14;;;;;;;2.13;1.77;;;;;;;;;;4962235;28;20211;-75
2022/07/07 03:58:18;;;;;;;3.73;2.23;;;;;;;;;;4965050;28;20566;-75
2022/07/07 04:01:22;;;;;;;2.83;2.10;;;;;;;;;;4970680;28;20235;-75
2022/07/07 04:04:27;;;;;;;2.87;2.10;;;;;;;;;;4966647;28;20199;-75
2022/07/07 04:07:33;;;;;;;2.67;2.27;;;;;;;;;;4954012;28;20183;-75
2022/07/07 04:10:37;;;;;;;3.03;2.07;;;;;;;;;;4945844;29;20227;-75
2022/07/07 04:13:41;;;;;;;4.70;2.40;;;;;;;;;;4948803;28;20519;-75
2022/07/07 04:16:45;;;;;;;4.60;2.17;;;;;;;;;;4962478;28;20219;-75
2022/07/07 04:19:49;;;;;;;4.17;2.00;;;;;;;;;;4935258;29;20635;-75
2022/07/07 04:22:53;;;;;;;2.80;2.40;;;;;;;;;;4957312;29;20188;-75
2022/07/07 04:25:58;;;;;;;5.90;2.27;;;;;;;;;;4951286;28;20186;-75
2022/07/07 04:29:02;;;;;;;6.23;2.50;;;;;;;;;;4975639;28;20566;-75
2022/07/07 04:32:06;;;;;;;3.47;2.30;;;;;;;;;;4976376;28;20227;-75
2022/07/07 04:35:11;;;;;;;2.90;1.80;;;;;;;;;;4961270;28;20192;-75
2022/07/07 04:38:15;;;;;;;4.37;1.80;;;;;;;;;;4975472;28;20215;-75
2022/07/07 04:41:19;;;;;;;3.33;2.00;;;;;;;;;;4964535;28;20226;-75
2022/07/07 04:44:23;;;;;;;3.60;1.90;;;;;;;;;;4945410;28;20666;-75
2022/07/07 04:47:27;;;;;;;4.87;1.87;;;;;;;;;;4934474;29;20211;-75
2022/07/07 04:50:31;;;;;;;3.83;2.10;;;;;;;;;;4944945;29;20528;-75
2022/07/07 04:53:35;;;;;;;6.10;2.20;;;;;;;;;;4958373;28;20211;-76
2022/07/07 04:56:40;;;;;;;4.53;2.00;;;;;;;;;;4951826;29;20662;-75
2022/07/07 04:59:44;;;;;;;3.97;1.90;;;;;;;;;;4967893;28;20199;-75
2022/07/07 05:02:48;;;;;;;5.37;2.33;;;;;;;;;;4975939;28;20190;-75
2022/07/07 05:05:52;;;;;;;5.30;2.10;;;;;;;;;;4947520;28;20192;-75
2022/07/07 05:08:56;;;;;;;5.60;2.10;;;;;;;;;;4956542;29;20184;-76
2022/07/07 05:12:01;;;;;;;4.93;2.10;;;;;;;;;;4944993;29;20702;-75
2022/07/07 05:15:06;;;;;;;3.10;2.10;;;;;;;;;;4944819;28;20184;-76
2022/07/07 05:18:10;;;;;;;2.23;1.90;;;;;;;;;;4975770;28;20211;-75
2022/07/07 05:21:15;;;;;;;4.27;2.17;;;;;;;;;;4957225;28;20223;-76
2022/07/07 05:24:20;;;;;;;4.80;2.10;;;;;;;;;;4956330;29;20528;-75
2022/07/07 05:27:23;;;;;;;4.10;2.13;;;;;;;;;;4956112;29;20187;-75
2022/07/07 05:30:28;;;;;;;2.57;2.00;;;;;;;;;;4955966;29;20650;-75
2022/07/07 05:33:32;;;;;;;3.33;1.97;;;;;;;;;;4936939;28;20199;-76
2022/07/07 05:36:36;;;;;;;2.63;1.90;;;;;;;;;;4962975;28;20190;-74
2022/07/07 05:39:40;;;;;;;3.53;2.07;;;;;;;;;;4962923;28;20198;-75
2022/07/07 05:42:44;;;;;;;5.07;1.97;;;;;;;;;;4967448;28;20183;-83
2022/07/07 05:45:48;;;;;;;4.40;1.80;;;;;;;;;;4959760;28;20191;-81
2022/07/07 05:48:53;;;;;;;3.93;1.83;;;;;;;;;;4958915;28;20179;-82
2022/07/07 05:51:57;;;;;;;3.80;2.10;;;;;;;;;;4943015;28;20227;-82
2022/07/07 05:55:01;;;;;;;6.30;2.13;;;;;;;;;;4953463;28;20210;-81
2022/07/07 05:58:05;;;;;;;5.23;2.10;;;;;;;;;;4943771;29;20227;-81
2022/07/07 06:01:11;;;;;;;8.83;2.23;;;;;;;;;;4953981;28;20233;-81
2022/07/07 06:04:15;;;;;;;4.13;1.87;;;;;;;;;;4956756;28;20678;-80
2022/07/07 06:07:19;;;;;;;3.20;1.63;;;;;;;;;;4950235;28;20194;-81
2022/07/07 06:10:24;;;;;;;3.70;2.17;;;;;;;;;;4941982;28;20191;-82
2022/07/07 06:13:28;;;;;;;4.67;2.13;;;;;;;;;;4956103;28;20194;-81
2022/07/07 06:16:38;;;;;;;3.23;2.03;;;;;;;;;;4945811;28;20544;-81
2022/07/07 06:19:43;;;;;;;4.03;1.93;;;;;;;;;;4934845;29;20188;-81
2022/07/07 06:22:47;;;;;;;3.00;1.90;;;;;;;;;;4946206;29;20195;-81
2022/07/07 06:25:52;;;;;;;3.90;2.03;;;;;;;;;;4977238;28;20661;-80
2022/07/07 06:28:56;;;;;;;4.90;1.80;;;;;;;;;;4946556;28;20187;-81
2022/07/07 06:32:00;;;;;;;3.40;2.00;;;;;;;;;;4945367;29;20227;-82
2022/07/07 06:35:05;;;;;;;3.97;1.60;;;;;;;;;;4935549;28;20199;-81
2022/07/07 06:38:10;;;;;;;4.33;1.90;;;;;;;;;;4943669;28;20571;-81
2022/07/07 06:41:14;;;;;;;4.27;2.00;;;;;;;;;;4969751;28;20230;-80
2022/07/07 06:44:19;;;;;;;8.60;2.30;;;;;;;;;;4940299;29;20203;-82
2022/07/07 06:48:10;;;;;;;4.40;2.00;;;;;;;;;;4971078;23;20492;-84
2022/07/07 06:56:42;;;;;;;10.43;2.50;;;;;;;;;;4966819;28;20206;-84
2022/07/07 06:59:47;;;;;;;4.47;2.00;;;;;;;;;;4925815;29;20550;-84
2022/07/07 07:02:51;;;;;;;4.80;2.47;;;;;;;;;;4911578;29;20208;-84
2022/07/07 07:05:55;;;;;;;5.70;2.00;;;;;;;;;;4940166;29;20643;-84
2022/07/07 07:08:59;;;;;;;3.87;1.90;;;;;;;;;;4929429;29;20228;-84
2022/07/07 07:12:04;;;;;;;3.33;1.90;;;;;;;;;;4920631;29;20199;-84
2022/07/07 07:15:10;;;;;;;3.33;2.10;;;;;;;;;;4921815;29;20199;-86
2022/07/07 07:18:14;;;;;;;3.40;1.93;;;;;;;;;;4928911;29;20239;-85
2022/07/07 07:21:18;;;;;;;4.63;2.00;;;;;;;;;;4907968;29;20200;-85
2022/07/07 07:24:23;;;;;;;2.33;1.73;;;;;;;;;;4917327;29;20195;-86
2022/07/07 07:27:27;;;;;;;2.67;1.60;;;;;;;;;;4913039;29;20223;-86
2022/07/07 07:30:31;;;;;;;4.77;2.10;;;;;;;;;;4917884;29;20192;-85
2022/07/07 07:33:35;;;;;;;3.50;1.90;;;;;;;;;;4921123;29;20204;-86
2022/07/07 07:36:40;;;;;;;5.67;2.00;;;;;;;;;;4909811;29;20211;-89
2022/07/07 07:39:43;;;;;;;3.97;2.00;;;;;;;;;;4924786;29;20180;-86
2022/07/07 07:42:48;;;;;;;8.63;2.40;;;;;;;;;;4925724;29;20191;-85
2022/07/07 07:45:52;;;;;;;3.67;2.00;;;;;;;;;;4936991;29;20192;-85
2022/07/07 07:48:58;;;;;;;5.53;1.90;;;;;;;;;;4924792;29;20564;-85
2022/07/07 07:52:02;;;;;;;3.50;1.80;;;;;;;;;;4935471;29;20191;-86
2022/07/07 07:55:07;;;;;;;5.13;1.93;;;;;;;;;;4935617;29;20191;-85
2022/07/07 07:58:11;;;;;;;4.20;1.77;;;;;;;;;;4935294;29;20227;-86
2022/07/07 08:01:15;;;;;;;3.90;2.20;;;;;;;;;;4925293;29;20184;-85
2022/07/07 08:04:20;;;;;;;3.93;1.77;;;;;;;;;;4935282;29;20196;-85
2022/07/07 08:07:24;;;;;;;4.73;1.90;;;;;;;;;;4935044;29;20219;-85
2022/07/07 08:10:28;;;;;;;6.77;2.03;;;;;;;;;;4924645;29;20532;-85
2022/07/07 08:13:32;;;;;;;3.87;1.80;;;;;;;;;;4935254;29;20183;-85
2022/07/07 08:16:36;;;;;;;5.67;1.60;;;;;;;;;;4924843;29;20184;-85
2022/07/07 08:19:40;;;;;;;4.70;1.60;;;;;;;;;;4935325;29;20215;-86
2022/07/07 08:22:44;;;;;;;4.37;1.70;;;;;;;;;;4924196;29;20184;-86
2022/07/07 08:25:48;;;;;;;4.40;1.30;;;;;;;;;;4919756;29;20188;-85
2022/07/07 08:28:53;;;;;;;5.37;1.70;;;;;;;;;;4924306;29;20219;-85
2022/07/07 08:31:57;;;;;;;7.03;1.87;;;;;;;;;;4935257;29;20192;-85
2022/07/07 08:35:01;;;;;;;4.20;1.23;;;;;;;;;;4945736;29;20207;-85
2022/07/07 08:38:06;;;;;;;6.50;1.50;;;;;;;;;;4924637;29;20227;-86
2022/07/07 08:41:10;;;;;;;4.70;1.60;;;;;;;;;;4924227;29;20188;-86
2022/07/07 08:44:15;;;;;;;3.90;1.60;;;;;;;;;;4923950;29;20187;-86
2022/07/07 08:47:50;;;;;;;1.67;1.30;;;;;;;;;;4923836;29;20709;-86
2022/07/07 08:50:55;;;;;;;2.93;1.10;;;;;;;;;;4934925;29;20188;-86
2022/07/07 08:54:00;;;;;;;2.67;1.10;;;;;;;;;;4934774;29;20207;-86
2022/07/07 08:57:06;;;;;;;1.93;0.83;;;;;;;;;;4934834;29;20200;-86
2022/07/07 09:00:10;;;;;;;1.73;1.13;;;;;;;;;;4957363;29;20179;-86
2022/07/07 09:03:15;;;;;;;2.37;1.00;;;;;;;;;;4924318;29;20188;-85
2022/07/07 09:06:19;;;;;;;1.47;1.07;;;;;;;;;;4934805;29;20183;-85
2022/07/07 09:09:49;;;;;;;4.53;1.17;;;;;;;;;;4923864;29;20175;-85
2022/07/07 09:12:53;;;;;;;2.30;1.20;;;;;;;;;;4923484;29;20646;-86
2022/07/07 09:16:04;;;;;;;2.90;1.37;;;;;;;;;;4933923;29;20183;-86
2022/07/07 09:19:19;;;;;;;3.40;1.30;;;;;;;;;;4934164;29;20223;-86
2022/07/07 09:22:40;;;;;;;4.17;1.20;;;;;;;;;;4934120;29;20207;-85
2022/07/07 09:25:44;;;;;;;3.17;1.30;;;;;;;;;;4923679;29;20520;-85
2022/07/07 09:28:48;;;;;;;5.70;1.37;;;;;;;;;;4934325;29;20219;-85
2022/07/07 09:31:55;;;;;;;2.90;1.57;;;;;;;;;;4923605;29;20643;-85
2022/07/07 09:38:13;;;;;;;1.57;1.30;;;;;;;;;;4934568;29;20183;-85
2022/07/07 09:38:24;;;;;;;4.87;1.60;;;;;;;;;;4945209;29;20231;-85
2022/07/07 09:41:29;;;;;;;4.13;1.60;;;;;;;;;;4923888;29;20191;-85
2022/07/07 09:44:33;;;;;;;3.83;1.50;;;;;;;;;;4934912;29;20192;-86
2022/07/07 09:47:38;;;;;;;1.90;1.37;;;;;;;;;;4944905;29;20239;-85
2022/07/07 09:50:42;;;;;;;5.07;1.77;;;;;;;;;;4934225;29;20179;-85
2022/07/07 09:54:04;;;;;;;2.53;1.60;;;;;;;;;;4922941;29;20184;-85
2022/07/07 09:57:08;;;;;;;1.60;1.20;;;;;;;;;;4931640;29;20232;-85
2022/07/07 10:00:12;;;;;;;3.10;1.50;;;;;;;;;;4933514;29;20548;-85
2022/07/07 10:03:17;;;;;;;3.37;1.73;;;;;;;;;;4944653;29;20528;-85
2022/07/07 10:06:22;;;;;;;4.87;1.67;;;;;;;;;;4922491;29;20188;-85
2022/07/07 10:09:26;;;;;;;2.37;1.37;;;;;;;;;;4933618;29;20627;-85
2022/07/07 10:12:32;;;;;;;3.73;1.20;;;;;;;;;;4944561;29;20192;-85
2022/07/07 10:15:36;;;;;;;1.93;1.30;;;;;;;;;;4944760;29;20639;-85
2022/07/07 10:18:42;;;;;;;3.77;1.60;;;;;;;;;;4932946;29;20230;-86
2022/07/07 10:21:48;;;;;;;4.80;1.67;;;;;;;;;;4922553;29;20671;-85
2022/07/07 10:24:58;;;;;;;2.17;1.20;;;;;;;;;;4933507;29;20207;-86
2022/07/07 10:28:03;;;;;;;6.13;1.60;;;;;;;;;;4921324;29;20694;-85
2022/07/07 10:31:25;;;;;;;3.43;1.50;;;;;;;;;;4933496;29;20192;-85
2022/07/07 10:34:33;;;;;;;5.07;1.60;;;;;;;;;;4933245;29;20631;-85
2022/07/07 10:37:43;;;;;;;4.67;1.50;;;;;;;;;;4922315;29;20219;-85
2022/07/07 10:40:52;;;;;;;3.37;1.43;;;;;;;;;;4922182;29;20180;-85
2022/07/07 10:44:05;;;;;;;2.43;1.50;;;;;;;;;;4933474;29;20192;-85
2022/07/07 10:47:12;;;;;;;6.00;2.10;;;;;;;;;;4944768;29;20235;-85
2022/07/07 10:50:30;;;;;;;4.07;2.07;;;;;;;;;;4945356;29;20180;-86
2022/07/07 10:53:33;;;;;;;4.07;2.23;;;;;;;;;;4933789;29;20188;-86
2022/07/07 10:56:53;;;;;;;6.97;2.27;;;;;;;;;;4945104;29;20183;-86
2022/07/07 11:00:03;;;;;;;3.83;2.10;;;;;;;;;;4933929;29;20219;-85
2022/07/07 11:03:13;;;;;;;3.13;1.87;;;;;;;;;;4922798;29;20188;-86
2022/07/07 11:06:17;;;;;;;3.40;2.17;;;;;;;;;;4922535;29;20199;-86
2022/07/07 11:09:21;;;;;;;3.80;2.03;;;;;;;;;;4933453;29;20187;-85
2022/07/07 11:12:36;;;;;;;5.63;2.53;;;;;;;;;;4922619;29;20195;-86
2022/07/07 11:15:40;;;;;;;4.23;2.10;;;;;;;;;;4934501;29;20192;-86
2022/07/07 11:18:54;;;;;;;3.10;2.17;;;;;;;;;;4932849;29;20706;-86
2022/07/07 11:21:59;;;;;;;4.33;2.13;;;;;;;;;;4922453;29;20188;-85
2022/07/07 11:25:03;;;;;;;4.20;2.63;;;;;;;;;;4922564;29;20208;-86
2022/07/07 11:28:10;;;;;;;4.30;2.50;;;;;;;;;;4944293;29;20227;-85
2022/07/07 11:31:14;;;;;;;4.73;2.63;;;;;;;;;;4922824;29;20188;-85
2022/07/07 11:34:18;;;;;;;5.23;2.10;;;;;;;;;;4934682;29;20647;-85
2022/07/07 11:37:26;;;;;;;4.17;2.30;;;;;;;;;;4933033;29;20227;-86
2022/07/07 11:40:31;;;;;;;5.17;2.40;;;;;;;;;;4926026;29;20212;-85
2022/07/07 11:43:36;;;;;;;3.50;2.13;;;;;;;;;;4947334;29;20207;-86
2022/07/07 11:46:41;;;;;;;4.10;2.23;;;;;;;;;;4925866;29;20199;-85
2022/07/07 11:49:45;;;;;;;4.43;2.33;;;;;;;;;;4936141;29;20184;-86
2022/07/07 11:52:54;;;;;;;5.33;2.43;;;;;;;;;;4936161;29;20191;-85
2022/07/07 11:55:58;;;;;;;5.50;2.30;;;;;;;;;;4935757;29;20187;-86
2022/07/07 11:59:03;;;;;;;3.40;2.50;;;;;;;;;;4924472;29;20230;-85
2022/07/07 12:02:18;;;;;;;5.93;2.50;;;;;;;;;;4936882;29;20203;-86
2022/07/07 12:05:25;;;;;;;2.60;2.20;;;;;;;;;;4926260;29;20192;-86
2022/07/07 12:08:35;;;;;;;4.13;1.93;;;;;;;;;;4925951;29;20223;-86
2022/07/07 12:11:40;;;;;;;2.50;2.30;;;;;;;;;;4925066;29;20552;-86
2022/07/07 12:14:45;;;;;;;4.43;2.63;;;;;;;;;;4926027;29;20199;-86
2022/07/07 12:17:49;;;;;;;3.40;2.10;;;;;;;;;;4925053;29;20222;-86
2022/07/07 12:20:59;;;;;;;4.73;2.13;;;;;;;;;;4935846;29;20207;-86
2022/07/07 12:24:04;;;;;;;4.93;2.43;;;;;;;;;;4936039;29;20286;-85
2022/07/07 12:27:17;;;;;;;3.23;2.40;;;;;;;;;;4935904;29;20231;-85
2022/07/07 12:30:23;;;;;;;4.70;2.30;;;;;;;;;;4946361;29;20187;-86
2022/07/07 12:33:30;;;;;;;8.63;2.37;;;;;;;;;;4924907;29;20631;-85
2022/07/07 12:36:34;;;;;;;4.97;2.27;;;;;;;;;;4924364;29;20184;-86
2022/07/07 12:39:42;;;;;;;5.27;2.70;;;;;;;;;;4957762;29;20219;-86
2022/07/07 12:42:46;;;;;;;3.57;2.40;;;;;;;;;;4934958;29;20200;-86
2022/07/07 12:45:50;;;;;;;3.43;2.37;;;;;;;;;;4924382;29;20187;-86
2022/07/07 12:48:54;;;;;;;8.67;2.40;;;;;;;;;;4938990;23;20235;-85
2022/07/07 12:51:58;;;;;;;5.13;2.50;;;;;;;;;;4916356;29;20180;-85
2022/07/07 12:55:11;;;;;;;5.73;2.70;;;;;;;;;;4927756;29;20192;-85
2022/07/07 12:58:15;;;;;;;4.57;2.30;;;;;;;;;;4930027;29;20221;-85
2022/07/07 13:01:24;;;;;;;7.70;2.50;;;;;;;;;;4909725;29;20636;-85
2022/07/07 13:04:28;;;;;;;4.43;2.20;;;;;;;;;;4908521;29;20636;-85
2022/07/07 13:07:32;;;;;;;2.93;2.50;;;;;;;;;;4909070;29;20216;-85
2022/07/07 13:10:36;;;;;;;4.33;2.27;;;;;;;;;;4887588;29;20628;-85
2022/07/07 13:13:41;;;;;;;6.03;2.43;;;;;;;;;;4908657;29;20189;-85
2022/07/07 13:16:45;;;;;;;7.43;2.60;;;;;;;;;;4920036;29;20189;-85
2022/07/07 13:19:50;;;;;;;5.07;2.13;;;;;;;;;;4908973;29;20212;-85
2022/07/07 13:22:54;;;;;;;3.90;2.30;;;;;;;;;;4898433;29;20188;-85
2022/07/07 13:25:59;;;;;;;3.20;2.50;;;;;;;;;;4898339;29;20188;-85
2022/07/07 13:29:03;;;;;;;7.73;2.73;;;;;;;;;;4908920;29;20220;-85
2022/07/07 13:32:08;;;;;;;5.03;2.80;;;;;;;;;;4909650;29;20185;-86
2022/07/07 13:35:12;;;;;;;7.63;3.10;;;;;;;;;;4908858;29;20189;-85
2022/07/07 13:38:16;;;;;;;5.40;2.67;;;;;;;;;;4907880;29;20216;-85
2022/07/07 13:41:20;;;;;;;10.43;2.70;;;;;;;;;;4918767;29;20250;-85
2022/07/07 13:44:24;;;;;;;3.77;2.50;;;;;;;;;;4908842;29;20600;-85
2022/07/07 13:47:29;;;;;;;7.80;2.17;;;;;;;;;;4897219;29;20204;-85
2022/07/07 13:50:33;;;;;;;5.90;2.60;;;;;;;;;;4897588;29;20192;-85
2022/07/07 13:53:37;;;;;;;3.00;2.17;;;;;;;;;;4919505;29;20185;-86
2022/07/07 13:56:41;;;;;;;2.87;2.40;;;;;;;;;;4908731;29;20188;-86
2022/07/07 13:59:46;;;;;;;3.73;2.50;;;;;;;;;;4920253;29;20544;-85
2022/07/07 14:02:50;;;;;;;2.87;2.33;;;;;;;;;;4908136;29;20189;-85
2022/07/07 14:05:55;;;;;;;5.77;2.23;;;;;;;;;;4907705;29;20185;-86
2022/07/07 14:08:59;;;;;;;3.43;1.97;;;;;;;;;;4909164;29;20224;-85
2022/07/07 14:12:03;;;;;;;2.43;1.70;;;;;;;;;;4919703;29;20304;-87
2022/07/07 14:15:08;;;;;;;2.23;1.60;;;;;;;;;;4919143;29;20181;-86
2022/07/07 14:18:12;;;;;;;4.57;1.57;;;;;;;;;;4908593;29;20573;-85
2022/07/07 14:21:16;;;;;;;3.90;1.90;;;;;;;;;;4918895;29;20217;-85
2022/07/07 14:24:21;;;;;;;4.27;1.97;;;;;;;;;;4929764;29;20190;-85
2022/07/07 14:27:27;;;;;;;3.80;1.73;;;;;;;;;;4897227;29;20184;-86
2022/07/07 14:30:31;;;;;;;3.57;2.13;;;;;;;;;;4897325;29;20189;-85
2022/07/07 14:33:35;;;;;;;2.40;2.20;;;;;;;;;;4896835;29;20188;-85
2022/07/07 14:36:39;;;;;;;5.80;2.40;;;;;;;;;;4897118;29;20189;-85
2022/07/07 14:39:43;;;;;;;7.00;2.27;;;;;;;;;;4908031;29;20216;-85
2022/07/07 14:42:47;;;;;;;2.87;2.17;;;;;;;;;;4908433;29;20185;-85
2022/07/07 14:45:52;;;;;;;6.13;2.13;;;;;;;;;;4907626;29;20192;-85
2022/07/07 14:48:56;;;;;;;2.70;2.10;;;;;;;;;;4896319;29;20236;-85
2022/07/07 14:52:00;;;;;;;3.20;2.27;;;;;;;;;;4907408;29;20181;-85
2022/07/07 14:55:04;;;;;;;2.77;2.20;;;;;;;;;;4918566;29;20528;-85
2022/07/07 14:58:08;;;;;;;2.63;2.27;;;;;;;;;;4908123;29;20707;-85
2022/07/07 15:01:12;;;;;;;3.37;2.30;;;;;;;;;;4907314;29;20232;-85
2022/07/07 15:04:17;;;;;;;6.03;2.20;;;;;;;;;;4907137;29;20189;-85
2022/07/07 15:07:21;;;;;;;3.97;2.40;;;;;;;;;;4906901;29;20184;-85
2022/07/07 15:10:25;;;;;;;2.63;2.40;;;;;;;;;;4907111;29;20184;-85
2022/07/07 15:13:29;;;;;;;3.07;2.77;;;;;;;;;;4907743;29;20189;-86
2022/07/07 15:16:34;;;;;;;4.73;2.40;;;;;;;;;;4925529;29;20209;-85
2022/07/07 15:19:38;;;;;;;4.07;2.67;;;;;;;;;;4912214;29;20208;-85
2022/07/07 15:22:43;;;;;;;2.80;2.50;;;;;;;;;;4913876;29;20209;-84
2022/07/07 15:25:48;;;;;;;5.67;3.13;;;;;;;;;;4924896;29;20663;-84
2022/07/07 15:28:52;;;;;;;6.10;2.90;;;;;;;;;;4915213;29;20221;-85
2022/07/07 15:31:56;;;;;;;4.37;3.37;;;;;;;;;;4913659;29;20181;-85
2022/07/07 15:35:01;;;;;;;3.70;3.40;;;;;;;;;;4912393;29;20185;-87
2022/07/07 15:38:05;;;;;;;5.17;3.13;;;;;;;;;;4922670;29;20228;-85
2022/07/07 15:41:14;;;;;;;3.63;3.33;;;;;;;;;;4912153;29;20236;-85
2022/07/07 15:44:19;;;;;;;5.83;3.60;;;;;;;;;;4913707;29;20185;-86
2022/07/07 15:47:23;;;;;;;3.73;3.43;;;;;;;;;;4913216;29;20663;-83
2022/07/07 15:50:27;;;;;;;5.10;3.70;;;;;;;;;;4900677;29;20185;-85
2022/07/07 15:53:31;;;;;;;3.90;3.43;;;;;;;;;;4901420;29;20185;-85
2022/07/07 15:56:36;;;;;;;3.73;3.20;;;;;;;;;;4904145;29;20189;-85
2022/07/07 15:59:39;;;;;;;3.53;3.10;;;;;;;;;;4934683;29;20193;-85
2022/07/07 16:02:44;;;;;;;5.07;3.27;;;;;;;;;;4914267;29;20189;-85
2022/07/07 16:05:48;;;;;;;3.53;3.20;;;;;;;;;;4914940;29;20205;-85
2022/07/07 16:08:53;;;;;;;4.60;3.07;;;;;;;;;;4924931;29;20565;-85
2022/07/07 16:11:57;;;;;;;3.97;3.30;;;;;;;;;;4903357;29;20185;-86
2022/07/07 16:15:02;;;;;;;6.17;3.20;;;;;;;;;;4912682;29;20185;-85
2022/07/07 16:18:06;;;;;;;3.20;2.90;;;;;;;;;;4900624;29;20229;-85
2022/07/07 16:21:11;;;;;;;6.10;3.20;;;;;;;;;;4921366;29;20216;-86
2022/07/07 16:24:15;;;;;;;4.70;2.83;;;;;;;;;;4899654;29;20193;-85
2022/07/07 16:27:19;;;;;;;4.00;2.70;;;;;;;;;;4922424;29;20181;-86
2022/07/07 16:30:23;;;;;;;6.03;3.60;;;;;;;;;;4911515;29;20189;-85
2022/07/07 16:33:27;;;;;;;5.43;3.90;;;;;;;;;;4900401;29;20193;-85
2022/07/07 16:36:32;;;;;;;4.40;3.40;;;;;;;;;;4899748;29;20185;-85
2022/07/07 16:39:36;;;;;;;5.23;3.87;;;;;;;;;;4913020;29;20193;-87
2022/07/07 16:42:40;;;;;;;5.03;4.13;;;;;;;;;;4911026;29;20189;-85
2022/07/07 16:45:44;;;;;;;6.40;5.17;;;;;;;;;;4915910;29;20192;-86
2022/07/07 16:48:48;;;;;;;4.83;3.97;;;;;;;;;;4918243;29;20232;-87
2022/07/07 16:51:52;;;;;;;4.37;3.97;;;;;;;;;;4915638;29;20201;-87
2022/07/07 16:54:57;;;;;;;3.40;3.10;;;;;;;;;;4933712;29;20185;-86
2022/07/07 16:58:01;;;;;;;4.17;2.97;;;;;;;;;;4922607;29;20220;-86
2022/07/07 17:01:06;;;;;;;3.37;3.07;;;;;;;;;;4933264;29;20726;-87
2022/07/07 17:04:10;;;;;;;3.50;2.60;;;;;;;;;;4890801;29;20204;-86
2022/07/07 17:07:15;;;;;;;2.87;2.60;;;;;;;;;;4924442;29;20189;-87
2022/07/07 17:10:20;;;;;;;3.00;2.70;;;;;;;;;;4923822;29;20184;-86
2022/07/07 17:13:24;;;;;;;4.17;2.50;;;;;;;;;;4934296;29;20189;-86
2022/07/07 17:16:29;;;;;;;2.60;2.40;;;;;;;;;;4922294;29;20193;-86
2022/07/07 17:19:33;;;;;;;3.13;2.43;;;;;;;;;;4924573;29;20216;-86
2022/07/07 17:22:37;;;;;;;3.10;2.80;;;;;;;;;;4912574;29;20185;-86
2022/07/07 17:25:42;;;;;;;4.50;2.80;;;;;;;;;;4911395;29;20189;-86
2022/07/07 17:28:46;;;;;;;3.93;2.87;;;;;;;;;;4922654;29;20224;-86
2022/07/07 17:31:51;;;;;;;3.00;2.67;;;;;;;;;;4933756;29;20205;-85
2022/07/07 17:34:55;;;;;;;8.97;2.70;;;;;;;;;;4911825;29;20632;-85
2022/07/07 17:37:59;;;;;;;2.40;2.20;;;;;;;;;;4911155;29;20225;-86
2022/07/07 17:41:04;;;;;;;3.80;2.20;;;;;;;;;;4911139;29;20217;-85
2022/07/07 17:44:08;;;;;;;2.23;2.03;;;;;;;;;;4911436;29;20185;-87
2022/07/07 17:47:12;;;;;;;2.50;2.10;;;;;;;;;;4911529;29;20228;-85
2022/07/07 17:50:17;;;;;;;3.13;2.00;;;;;;;;;;4911066;29;20185;-85
2022/07/07 17:53:22;;;;;;;2.97;2.00;;;;;;;;;;4922677;29;20180;-86
2022/07/07 17:56:26;;;;;;;2.30;1.97;;;;;;;;;;4910838;29;20212;-86
2022/07/07 17:59:30;;;;;;;2.57;2.30;;;;;;;;;;4921251;29;20224;-86
2022/07/07 18:02:34;;;;;;;3.07;2.40;;;;;;;;;;4911221;29;20228;-85
2022/07/07 18:05:38;;;;;;;2.77;2.13;;;;;;;;;;4910480;29;20185;-85
2022/07/07 18:08:44;;;;;;;3.70;2.90;;;;;;;;;;4911066;29;20224;-86
2022/07/07 18:11:49;;;;;;;3.00;2.80;;;;;;;;;;4932500;29;20664;-86
2022/07/07 18:14:53;;;;;;;3.40;3.10;;;;;;;;;;4911145;29;20189;-86
2022/07/07 18:17:58;;;;;;;4.27;3.37;;;;;;;;;;4910331;29;20224;-86
2022/07/07 18:21:02;;;;;;;3.60;3.10;;;;;;;;;;4910064;29;20228;-85
2022/07/07 18:24:07;;;;;;;3.97;3.57;;;;;;;;;;4910073;29;20213;-85
2022/07/07 18:27:11;;;;;;;3.63;3.33;;;;;;;;;;4910171;29;20184;-85
2022/07/07 18:30:16;;;;;;;4.70;3.77;;;;;;;;;;4910516;29;20193;-85
2022/07/07 18:33:20;;;;;;;4.43;3.67;;;;;;;;;;4912669;29;20189;-86
2022/07/07 18:36:24;;;;;;;3.43;3.13;;;;;;;;;;4912848;29;20203;-86
2022/07/07 18:39:28;;;;;;;4.20;3.80;;;;;;;;;;4913574;29;20224;-85